Time;durP1;ratioP1;P1;durP2;ratioP2;P2;SDS_P1;SDS_P2;PMS_P1;PMS_P2;Temp;Humidity;BMP_temperature;BMP_pressure;BME280_temperature;BME280_humidity;BME280_pressure;Samples;Min_cycle;Max_cycle;Signal;HPM_P1;HPM_P2
2023/02/03 00:00:11;;;;;;;5.30;2.38;;;21.60;38.60;;;;;;5062350;28;20036;-49
2023/02/03 00:02:37;;;;;;;5.65;2.50;;;21.60;38.60;;;;;;5061465;28;20186;-51
2023/02/03 00:05:03;;;;;;;5.20;2.80;;;21.60;38.60;;;;;;5056498;28;20463;-48
2023/02/03 00:07:29;;;;;;;6.15;2.90;;;21.60;38.60;;;;;;5043425;28;20028;-46
2023/02/03 00:09:56;;;;;;;6.15;2.55;;;21.70;38.70;;;;;;5062142;28;20039;-47
2023/02/03 00:12:22;;;;;;;4.43;2.42;;;21.60;38.60;;;;;;5063968;28;20036;-50
2023/02/03 00:14:48;;;;;;;5.10;2.42;;;21.60;38.60;;;;;;5060663;28;20037;-49
2023/02/03 00:17:14;;;;;;;5.10;2.47;;;21.60;38.60;;;;;;5062583;28;20128;-46
2023/02/03 00:19:40;;;;;;;5.47;2.38;;;21.60;38.70;;;;;;5060307;28;20467;-45
2023/02/03 00:22:06;;;;;;;5.35;2.50;;;21.60;38.60;;;;;;5059538;28;20054;-47
2023/02/03 00:24:31;;;;;;;3.80;2.17;;;21.60;38.60;;;;;;5039178;28;20045;-51
2023/02/03 00:26:57;;;;;;;4.53;2.25;;;21.60;38.70;;;;;;5064031;28;20043;-50
2023/02/03 00:29:24;;;;;;;3.70;1.90;;;21.50;38.60;;;;;;5058494;28;20040;-50
2023/02/03 00:31:52;;;;;;;4.15;2.40;;;21.50;38.60;;;;;;5038439;28;20021;-45
2023/02/03 00:34:18;;;;;;;4.72;2.35;;;21.50;38.70;;;;;;5060881;28;20348;-47
2023/02/03 00:36:46;;;;;;;5.03;2.10;;;21.50;38.70;;;;;;5063293;28;20094;-49
2023/02/03 00:39:16;;;;;;;3.75;1.83;;;21.50;38.70;;;;;;5061229;28;20032;-48
2023/02/03 00:41:42;;;;;;;6.05;1.83;;;21.50;38.70;;;;;;5057411;28;20097;-48
2023/02/03 00:44:07;;;;;;;4.10;1.83;;;21.50;38.70;;;;;;5062082;28;20048;-44
2023/02/03 00:46:35;;;;;;;7.05;2.55;;;21.50;38.70;;;;;;5063468;28;20067;-52
2023/02/03 00:49:03;;;;;;;5.25;2.42;;;21.50;38.70;;;;;;5063575;28;20029;-45
2023/02/03 00:51:29;;;;;;;4.03;2.00;;;21.50;38.70;;;;;;5038077;28;20017;-51
2023/02/03 00:53:55;;;;;;;4.75;2.22;;;21.50;38.70;;;;;;5056809;28;20382;-51
2023/02/03 00:56:22;;;;;;;4.97;2.03;;;21.50;38.70;;;;;;5061174;28;20029;-48
2023/02/03 00:58:47;;;;;;;5.88;2.22;;;21.50;38.70;;;;;;5053332;28;20463;-50
2023/02/03 01:01:13;;;;;;;5.32;1.83;;;21.40;38.70;;;;;;5057180;28;20036;-47
2023/02/03 01:03:39;;;;;;;4.82;1.95;;;21.50;38.70;;;;;;5059444;28;20380;-50
2023/02/03 01:06:14;;;;;;;4.88;2.03;;;21.40;38.70;;;;;;5039809;28;20029;-49
2023/02/03 01:08:41;;;;;;;3.97;1.70;;;21.50;38.80;;;;;;5054667;28;20025;-47
2023/02/03 01:11:16;;;;;;;4.60;1.73;;;21.40;38.70;;;;;;5059633;28;20082;-45
2023/02/03 01:13:42;;;;;;;3.38;1.83;;;21.40;38.70;;;;;;5037916;28;20056;-50
2023/02/03 01:16:17;;;;;;;4.65;2.05;;;21.40;38.70;;;;;;5040950;28;20108;-45
2023/02/03 01:18:43;;;;;;;;;;;21.40;38.70;;;;;;5038396;28;20041;-49
2023/02/03 01:21:18;;;;;;;6.07;1.70;;;21.40;38.70;;;;;;5050605;28;19920;-49
2023/02/03 01:23:44;;;;;;;4.47;1.65;;;21.40;38.70;;;;;;5063160;28;20094;-51
2023/02/03 01:26:13;;;;;;;4.25;1.50;;;21.40;38.70;;;;;;5058198;28;20094;-49
2023/02/03 01:28:40;;;;;;;3.80;1.67;;;21.40;38.80;;;;;;5062780;28;20039;-52
2023/02/03 01:31:12;;;;;;;3.60;1.45;;;21.40;38.80;;;;;;5039136;28;20043;-49
2023/02/03 01:33:39;;;;;;;5.05;1.80;;;21.40;38.80;;;;;;5042754;28;20033;-49
2023/02/03 01:36:08;;;;;;;3.72;1.80;;;21.30;38.70;;;;;;5063257;28;20474;-45
2023/02/03 01:38:36;;;;;;;3.80;1.38;;;21.30;38.70;;;;;;5040891;28;20406;-48
2023/02/03 01:41:03;;;;;;;3.92;1.67;;;21.40;38.80;;;;;;5062656;28;20028;-51
2023/02/03 01:43:34;;;;;;;3.38;1.38;;;21.40;38.80;;;;;;5043182;28;20021;-47
2023/02/03 01:46:03;;;;;;;4.38;1.75;;;21.30;38.80;;;;;;5061628;28;20021;-46
2023/02/03 01:48:33;;;;;;;3.33;1.48;;;21.30;38.80;;;;;;5041698;28;20029;-50
2023/02/03 01:51:03;;;;;;;5.63;1.58;;;21.30;38.80;;;;;;5067284;28;20024;-44
2023/02/03 01:53:30;;;;;;;4.25;1.50;;;21.30;38.80;;;;;;5041575;28;20095;-50
2023/02/03 01:55:57;;;;;;;3.33;1.50;;;21.30;38.80;;;;;;5065321;28;20059;-51
2023/02/03 01:58:31;;;;;;;4.57;1.50;;;21.30;38.80;;;;;;5043706;28;20047;-53
2023/02/03 02:00:57;;;;;;;3.70;1.50;;;21.30;38.80;;;;;;5044349;28;20035;-47
2023/02/03 02:03:31;;;;;;;4.45;1.65;;;21.30;38.80;;;;;;5038482;28;20095;-54
2023/02/03 02:06:09;;;;;;;4.20;1.70;;;21.30;38.80;;;;;;5044196;28;21458;-51
2023/02/03 02:08:36;;;;;;;3.08;1.38;;;21.20;38.80;;;;;;5058986;28;20041;-53
2023/02/03 02:11:03;;;;;;;3.88;1.35;;;21.20;38.80;;;;;;5048045;28;20036;-54
2023/02/03 02:13:33;;;;;;;5.13;1.60;;;21.30;38.80;;;;;;5061938;28;20372;-48
2023/02/03 02:16:10;;;;;;;4.57;1.67;;;21.20;38.80;;;;;;5061135;28;20441;-46
2023/02/03 02:18:39;;;;;;;3.22;1.27;;;21.30;38.90;;;;;;5061743;28;20109;-45
2023/02/03 02:21:23;;;;;;;3.58;1.80;;;21.20;38.80;;;;;;5056975;28;20029;-45
2023/02/03 02:23:56;;;;;;;3.58;1.27;;;21.20;38.80;;;;;;5040302;28;20067;-45
2023/02/03 02:26:40;;;;;;;4.07;1.35;;;21.20;38.80;;;;;;5042663;28;20120;-51
2023/02/03 02:29:44;;;;;;;2.85;1.25;;;21.20;38.90;;;;;;5042208;28;20040;-46
2023/02/03 02:32:15;;;;;;;2.90;1.13;;;21.20;38.80;;;;;;5061892;28;20044;-45
2023/02/03 02:35:08;;;;;;;2.92;1.13;;;21.20;39.50;;;;;;5059307;28;20033;-50
2023/02/03 02:38:20;;;;;;;3.95;1.45;;;21.20;38.90;;;;;;5039590;28;20036;-44
2023/02/03 02:40:53;;;;;;;2.75;1.10;;;21.20;38.90;;;;;;5037246;28;20116;-50
2023/02/03 02:43:39;;;;;;;4.88;1.45;;;21.20;38.90;;;;;;5046193;28;20060;-51
2023/02/03 02:46:16;;;;;;;4.53;1.27;;;21.20;38.90;;;;;;5040508;28;20029;-52
2023/02/03 02:48:56;;;;;;;2.90;1.20;;;21.20;38.90;;;;;;5042221;28;20041;-51
2023/02/03 02:51:23;;;;;;;2.88;1.08;;;21.10;38.90;;;;;;5051033;28;20028;-50
2023/02/03 02:53:58;;;;;;;2.92;1.25;;;21.20;38.90;;;;;;5061931;28;20445;-48
2023/02/03 02:56:26;;;;;;;4.15;1.20;;;21.10;38.90;;;;;;5046657;28;20460;-49
2023/02/03 02:58:53;;;;;;;4.25;1.10;;;21.10;38.80;;;;;;5058499;28;20036;-47
2023/02/03 03:01:19;;;;;;;3.47;1.00;;;21.10;38.80;;;;;;5058731;28;20128;-47
2023/02/03 03:03:45;;;;;;;3.22;1.38;;;21.10;38.80;;;;;;5044496;28;20112;-46
2023/02/03 03:06:25;;;;;;;1.92;0.85;;;21.10;38.80;;;;;;5059377;28;20028;-47
2023/02/03 03:08:56;;;;;;;4.40;1.38;;;21.10;38.80;;;;;;5060290;28;20059;-50
2023/02/03 03:11:28;;;;;;;1.98;0.90;;;21.10;38.80;;;;;;5044427;28;20021;-46
2023/02/03 03:13:57;;;;;;;4.40;1.20;;;21.10;38.80;;;;;;5065884;28;20055;-46
2023/02/03 03:16:29;;;;;;;3.22;0.95;;;21.10;38.80;;;;;;5063217;28;20102;-51
2023/02/03 03:18:58;;;;;;;2.63;1.02;;;21.10;38.80;;;;;;5039147;28;20423;-50
2023/02/03 03:21:35;;;;;;;4.07;1.10;;;21.10;38.70;;;;;;5039121;28;20024;-47
2023/02/03 03:24:06;;;;;;;5.18;1.23;;;21.10;38.70;;;;;;5058886;28;20043;-50
2023/02/03 03:26:38;;;;;;;3.17;1.10;;;21.10;38.80;;;;;;5059553;28;20039;-49
2023/02/03 03:29:28;;;;;;;3.75;1.33;;;21.10;38.70;;;;;;5064548;28;20465;-49
2023/02/03 03:31:54;;;;;;;2.65;1.13;;;21.10;38.70;;;;;;5056519;28;20040;-47
2023/02/03 03:34:20;;;;;;;2.53;0.98;;;21.10;38.70;;;;;;5055326;28;20380;-46
2023/02/03 03:36:54;;;;;;;2.53;0.90;;;21.10;38.70;;;;;;5058859;28;20787;-50
2023/02/03 03:39:58;;;;;;;2.58;0.73;;;21.00;38.70;;;;;;5060431;28;20043;-52
2023/02/03 03:42:36;;;;;;;3.63;1.00;;;21.10;38.80;;;;;;5060561;28;20129;-53
2023/02/03 03:45:13;;;;;;;3.50;1.10;;;21.00;38.70;;;;;;5059742;28;20029;-50
2023/02/03 03:47:49;;;;;;;2.38;1.08;;;21.00;38.80;;;;;;5060002;28;20024;-49
2023/02/03 03:50:22;;;;;;;3.75;1.42;;;21.00;38.80;;;;;;5064256;28;20356;-50
2023/02/03 03:52:50;;;;;;;4.80;1.40;;;21.00;38.80;;;;;;5060461;28;20033;-52
2023/02/03 03:55:18;;;;;;;3.20;1.05;;;21.00;38.80;;;;;;5056796;28;20024;-48
2023/02/03 03:57:52;;;;;;;3.85;0.90;;;21.00;38.80;;;;;;5060542;28;20106;-50
2023/02/03 04:00:20;;;;;;;3.17;1.10;;;21.00;38.80;;;;;;5057821;28;20036;-47
2023/02/03 04:02:51;;;;;;;2.13;1.00;;;21.00;38.80;;;;;;5062526;28;20047;-47
2023/02/03 04:05:17;;;;;;;1.55;0.70;;;21.00;38.80;;;;;;5056189;28;20087;-48
2023/02/03 04:07:45;;;;;;;3.28;1.30;;;21.00;38.90;;;;;;5056089;28;20086;-50
2023/02/03 04:10:31;;;;;;;2.70;0.95;;;21.00;38.80;;;;;;5061243;28;21175;-47
2023/02/03 04:12:56;;;;;;;2.88;1.00;;;21.00;38.80;;;;;;5058026;28;20119;-47
2023/02/03 04:15:22;;;;;;;3.35;1.17;;;21.00;39.50;;;;;;5055470;28;20425;-46
2023/02/03 04:17:48;;;;;;;2.40;0.82;;;21.00;38.90;;;;;;5039837;28;20136;-48
2023/02/03 04:20:15;;;;;;;2.55;0.90;;;21.00;38.90;;;;;;5057191;28;20464;-44
2023/02/03 04:22:42;;;;;;;3.13;1.08;;;21.00;38.90;;;;;;5060640;28;20033;-49
2023/02/03 04:25:09;;;;;;;3.47;1.00;;;21.00;38.90;;;;;;5062181;28;20048;-51
2023/02/03 04:27:35;;;;;;;2.92;1.05;;;20.90;38.80;;;;;;5056424;28;20406;-50
2023/02/03 04:30:01;;;;;;;3.00;0.90;;;21.00;38.90;;;;;;5063649;28;20024;-45
2023/02/03 04:32:27;;;;;;;2.55;0.80;;;21.00;38.90;;;;;;5054927;28;20475;-45
2023/02/03 04:34:52;;;;;;;4.28;1.00;;;21.00;38.90;;;;;;5057109;28;20120;-49
2023/02/03 04:37:19;;;;;;;3.20;1.08;;;21.00;39.00;;;;;;5066158;28;20059;-45
2023/02/03 04:39:45;;;;;;;4.22;1.08;;;20.90;38.90;;;;;;5058888;28;20085;-47
2023/02/03 04:42:11;;;;;;;3.97;1.10;;;21.00;39.00;;;;;;5039503;28;20025;-47
2023/02/03 04:44:37;;;;;;;3.28;1.00;;;20.90;38.90;;;;;;5055314;28;21530;-48
2023/02/03 04:47:03;;;;;;;2.78;0.80;;;20.90;38.90;;;;;;5060880;28;20028;-49
2023/02/03 04:49:29;;;;;;;3.03;1.00;;;20.90;38.90;;;;;;5064817;28;20025;-49
2023/02/03 04:51:54;;;;;;;3.72;0.80;;;20.90;38.90;;;;;;5059521;28;20029;-49
2023/02/03 04:54:20;;;;;;;2.65;0.77;;;20.90;38.90;;;;;;5057048;28;20025;-49
2023/02/03 04:56:46;;;;;;;3.35;0.95;;;20.90;38.90;;;;;;5044056;28;20387;-47
2023/02/03 04:59:12;;;;;;;3.47;1.13;;;20.90;39.00;;;;;;5058564;28;20245;-49
2023/02/03 05:01:38;;;;;;;2.78;1.00;;;20.90;39.00;;;;;;5055172;28;20021;-52
2023/02/03 05:04:03;;;;;;;2.28;0.80;;;20.90;39.00;;;;;;5065368;28;20408;-46
2023/02/03 05:06:31;;;;;;;4.30;0.95;;;20.90;39.00;;;;;;5059974;28;20036;-49
2023/02/03 05:08:56;;;;;;;2.67;0.98;;;20.90;39.00;;;;;;5060248;28;20432;-49
2023/02/03 05:11:22;;;;;;;2.05;1.05;;;20.90;39.00;;;;;;5066616;28;20016;-49
2023/02/03 05:13:48;;;;;;;2.40;0.80;;;20.90;39.00;;;;;;5062103;28;20045;-48
2023/02/03 05:16:14;;;;;;;2.60;0.75;;;20.90;39.00;;;;;;5043101;28;20060;-46
2023/02/03 05:18:40;;;;;;;1.80;0.90;;;20.90;39.00;;;;;;5064145;28;20043;-51
2023/02/03 05:21:06;;;;;;;3.10;0.85;;;20.90;39.00;;;;;;5057233;28;20025;-47
2023/02/03 05:23:32;;;;;;;3.15;0.90;;;20.80;39.00;;;;;;5060968;28;20024;-48
2023/02/03 05:25:58;;;;;;;3.47;0.90;;;20.80;39.00;;;;;;5061646;28;20035;-50
2023/02/03 05:28:24;;;;;;;4.03;0.90;;;20.80;39.00;;;;;;5066834;28;20082;-50
2023/02/03 05:30:50;;;;;;;3.33;0.95;;;20.80;39.00;;;;;;5043772;28;20025;-49
2023/02/03 05:33:16;;;;;;;2.47;0.90;;;20.80;39.00;;;;;;5063130;28;20032;-50
2023/02/03 05:35:41;;;;;;;3.28;1.10;;;20.80;39.00;;;;;;5045141;28;20115;-48
2023/02/03 05:38:07;;;;;;;3.05;0.93;;;20.80;39.00;;;;;;5057291;28;20094;-45
2023/02/03 05:43:18;;;;;;;3.75;1.13;;;20.80;39.00;;;;;;5061793;28;20314;-48
2023/02/03 05:45:44;;;;;;;2.15;0.82;;;20.80;39.00;;;;;;5061871;28;20028;-49
2023/02/03 05:48:10;;;;;;;4.10;1.20;;;20.80;39.00;;;;;;5064713;28;20177;-47
2023/02/03 05:50:37;;;;;;;3.75;1.30;;;20.80;39.10;;;;;;5061995;28;20103;-46
2023/02/03 05:53:07;;;;;;;3.33;1.27;;;20.80;39.10;;;;;;5063703;28;20028;-47
2023/02/03 05:55:33;;;;;;;4.28;0.98;;;20.80;39.10;;;;;;5059562;28;20044;-51
2023/02/03 05:58:00;;;;;;;3.03;1.10;;;20.80;39.20;;;;;;5060479;28;20033;-45
2023/02/03 06:00:26;;;;;;;2.72;1.05;;;20.80;39.20;;;;;;5062406;28;20033;-51
2023/02/03 06:02:54;;;;;;;2.70;0.90;;;20.80;39.20;;;;;;5061543;28;20038;-49
2023/02/03 06:05:21;;;;;;;3.88;1.23;;;20.80;39.20;;;;;;5061911;28;20029;-48
2023/02/03 06:07:47;;;;;;;3.28;0.95;;;20.80;39.20;;;;;;5041672;28;20551;-48
2023/02/03 06:10:13;;;;;;;3.03;0.90;;;20.70;39.10;;;;;;5057059;28;20025;-46
2023/02/03 06:12:39;;;;;;;3.03;0.95;;;20.80;39.20;;;;;;5061431;28;20029;-53
2023/02/03 06:15:06;;;;;;;2.63;0.75;;;20.80;39.20;;;;;;5063995;28;20029;-46
2023/02/03 06:17:32;;;;;;;3.35;0.98;;;20.80;39.20;;;;;;5060627;28;20037;-49
2023/02/03 06:19:58;;;;;;;3.25;0.88;;;20.80;39.20;;;;;;5060621;28;20090;-51
2023/02/03 06:22:24;;;;;;;3.22;0.95;;;20.70;39.10;;;;;;5058728;28;20025;-49
2023/02/03 06:24:50;;;;;;;2.45;0.90;;;20.70;39.10;;;;;;5057410;28;21074;-46
2023/02/03 06:27:16;;;;;;;3.90;0.85;;;20.70;39.20;;;;;;5062180;28;20048;-52
2023/02/03 06:29:42;;;;;;;2.05;0.70;;;20.70;39.10;;;;;;5059565;28;20048;-53
2023/02/03 06:32:08;;;;;;;1.70;0.60;;;20.70;39.20;;;;;;5062516;28;20028;-49
2023/02/03 06:34:34;;;;;;;3.75;1.25;;;20.70;39.20;;;;;;5059531;28;20024;-46
2023/02/03 06:37:00;;;;;;;2.80;0.85;;;20.70;39.20;;;;;;5063195;28;20089;-48
2023/02/03 06:39:26;;;;;;;2.10;0.88;;;20.70;39.30;;;;;;5056677;28;20391;-45
2023/02/03 06:41:52;;;;;;;3.28;1.15;;;20.70;39.30;;;;;;5061182;28;20025;-44
2023/02/03 06:44:18;;;;;;;3.30;1.05;;;20.70;39.30;;;;;;5062147;28;20029;-44
2023/02/03 06:46:44;;;;;;;3.92;0.85;;;20.70;39.30;;;;;;5058252;28;20021;-46
2023/02/03 06:49:10;;;;;;;2.95;1.05;;;20.70;39.30;;;;;;5058109;28;20072;-46
2023/02/03 06:51:36;;;;;;;3.42;1.10;;;20.70;39.30;;;;;;5060073;28;20053;-51
2023/02/03 06:54:04;;;;;;;4.63;1.00;;;20.70;39.30;;;;;;5061967;28;20066;-45
2023/02/03 06:56:30;;;;;;;3.10;0.90;;;20.70;39.30;;;;;;5061634;28;20025;-46
2023/02/03 06:58:57;;;;;;;2.30;0.70;;;20.70;39.40;;;;;;5059632;28;20040;-46
2023/02/03 07:01:24;;;;;;;3.85;1.13;;;20.70;39.40;;;;;;5061598;28;20063;-44
2023/02/03 07:03:50;;;;;;;2.10;0.82;;;20.70;39.40;;;;;;5061654;28;20025;-46
2023/02/03 07:06:17;;;;;;;3.20;0.95;;;20.70;39.40;;;;;;5057982;28;20052;-45
2023/02/03 07:08:43;;;;;;;2.47;0.80;;;20.70;39.40;;;;;;5058074;28;20028;-50
2023/02/03 07:11:09;;;;;;;2.58;0.88;;;20.70;39.50;;;;;;5060080;28;20052;-47
2023/02/03 07:13:35;;;;;;;3.95;1.02;;;20.70;40.10;;;;;;5059596;28;20080;-51
2023/02/03 07:16:01;;;;;;;2.53;0.80;;;20.70;39.50;;;;;;5056378;28;20025;-51
2023/02/03 07:18:26;;;;;;;3.05;0.90;;;20.60;39.50;;;;;;5057454;28;20218;-48
2023/02/03 07:20:53;;;;;;;3.92;0.90;;;20.70;39.50;;;;;;5034244;28;20093;-45
2023/02/03 07:23:19;;;;;;;3.58;1.20;;;20.60;39.50;;;;;;5036960;28;20025;-49
2023/02/03 07:25:45;;;;;;;3.35;1.00;;;20.60;39.50;;;;;;5037546;28;20036;-47
2023/02/03 07:28:11;;;;;;;3.58;1.00;;;20.60;39.50;;;;;;5055517;28;20035;-47
2023/02/03 07:30:37;;;;;;;3.38;1.20;;;20.70;39.50;;;;;;5058002;28;20036;-50
2023/02/03 07:33:03;;;;;;;2.83;1.00;;;20.60;39.50;;;;;;5052688;28;20425;-45
2023/02/03 07:35:28;;;;;;;6.80;1.40;;;20.60;39.50;;;;;;5053856;28;20033;-45
2023/02/03 07:37:54;;;;;;;3.72;1.23;;;20.60;39.50;;;;;;5058125;28;20047;-52
2023/02/03 07:40:20;;;;;;;4.70;1.30;;;20.60;39.50;;;;;;5050731;28;20025;-46
2023/02/03 07:42:48;;;;;;;4.57;1.25;;;20.60;39.50;;;;;;5053435;28;20032;-47
2023/02/03 07:45:15;;;;;;;3.30;1.00;;;20.60;39.50;;;;;;5055145;28;20040;-44
2023/02/03 07:47:44;;;;;;;3.03;1.00;;;20.60;39.50;;;;;;5054205;28;20116;-46
2023/02/03 07:50:11;;;;;;;3.28;1.30;;;20.60;39.50;;;;;;5046003;28;20037;-46
2023/02/03 07:52:37;;;;;;;4.35;1.25;;;20.60;39.50;;;;;;5062212;28;20404;-48
2023/02/03 07:55:04;;;;;;;4.20;0.77;;;20.60;39.50;;;;;;5035590;28;20321;-50
2023/02/03 07:57:30;;;;;;;3.30;0.93;;;20.60;39.60;;;;;;5054839;28;20116;-50
2023/02/03 07:59:56;;;;;;;3.85;1.20;;;20.60;39.60;;;;;;5055828;28;20119;-52
2023/02/03 08:02:22;;;;;;;3.60;1.15;;;20.60;39.70;;;;;;5057579;28;20042;-52
2023/02/03 08:04:47;;;;;;;2.47;0.85;;;20.60;39.80;;;;;;5057028;28;20029;-45
2023/02/03 08:07:13;;;;;;;2.45;0.85;;;20.60;39.90;;;;;;5059781;28;20039;-47
2023/02/03 08:09:39;;;;;;;3.60;0.98;;;20.70;40.10;;;;;;5060137;28;20021;-45
2023/02/03 08:12:05;;;;;;;2.58;0.90;;;20.70;40.10;;;;;;5057625;28;20361;-49
2023/02/03 08:14:31;;;;;;;2.30;0.63;;;20.70;40.30;;;;;;5058963;28;20064;-47
2023/02/03 08:16:57;;;;;;;4.60;1.13;;;20.70;40.40;;;;;;5064653;28;20052;-48
2023/02/03 08:19:23;;;;;;;2.65;1.00;;;20.80;40.60;;;;;;5038969;28;20040;-48
2023/02/03 08:21:50;;;;;;;4.05;1.10;;;20.80;40.60;;;;;;5061572;28;20029;-51
2023/02/03 08:24:16;;;;;;;2.20;1.00;;;20.80;40.60;;;;;;5063324;28;20086;-51
2023/02/03 08:26:42;;;;;;;3.38;1.00;;;20.90;40.70;;;;;;5060321;28;20036;-49
2023/02/03 08:29:08;;;;;;;3.08;1.20;;;20.90;40.60;;;;;;5060708;28;20360;-48
2023/02/03 08:31:34;;;;;;;4.35;1.10;;;21.00;40.70;;;;;;5059110;28;20077;-47
2023/02/03 08:33:59;;;;;;;3.85;1.10;;;21.00;40.70;;;;;;5055863;28;20457;-47
2023/02/03 08:36:25;;;;;;;3.42;1.33;;;21.00;40.60;;;;;;5056962;28;20025;-48
2023/02/03 08:38:51;;;;;;;3.45;1.15;;;21.10;40.60;;;;;;5058517;28;20041;-48
2023/02/03 08:41:17;;;;;;;3.00;1.10;;;21.10;40.60;;;;;;5058927;28;20104;-46
2023/02/03 08:43:44;;;;;;;2.50;0.80;;;21.20;40.60;;;;;;5053760;28;20272;-48
2023/02/03 08:46:11;;;;;;;2.25;0.90;;;21.20;40.40;;;;;;5060821;28;20017;-51
2023/02/03 08:48:37;;;;;;;1.95;0.88;;;21.30;40.30;;;;;;5059480;28;20365;-49
2023/02/03 08:51:14;;;;;;;3.50;1.17;;;21.30;40.20;;;;;;5058160;28;20448;-49
2023/02/03 08:53:40;;;;;;;2.45;0.85;;;21.30;40.10;;;;;;5056959;28;20181;-45
2023/02/03 08:56:09;;;;;;;3.40;0.73;;;21.40;40.00;;;;;;5044019;28;20111;-48
2023/02/03 08:58:35;;;;;;;2.85;0.98;;;21.50;39.90;;;;;;5055097;28;20139;-47
2023/02/03 09:01:09;;;;;;;3.10;1.02;;;21.50;39.90;;;;;;5057100;28;20132;-47
2023/02/03 09:03:35;;;;;;;3.42;1.00;;;21.50;39.80;;;;;;5045112;28;20111;-48
2023/02/03 09:06:02;;;;;;;4.90;1.17;;;21.50;39.70;;;;;;5051361;28;20068;-44
2023/02/03 09:08:28;;;;;;;3.85;1.10;;;21.60;39.60;;;;;;5058066;28;20112;-50
2023/02/03 09:10:54;;;;;;;2.72;0.82;;;21.60;39.50;;;;;;5062082;28;20087;-52
2023/02/03 09:13:20;;;;;;;3.65;1.00;;;21.60;39.40;;;;;;5072416;28;20048;-49
2023/02/03 09:15:46;;;;;;;2.50;0.80;;;21.70;39.40;;;;;;5078087;28;20467;-50
2023/02/03 09:18:12;;;;;;;3.38;1.00;;;21.70;39.30;;;;;;5069517;28;20049;-46
2023/02/03 09:20:38;;;;;;;3.25;1.10;;;21.70;39.20;;;;;;5060712;28;20349;-47
2023/02/03 09:23:04;;;;;;;2.58;0.93;;;21.70;39.00;;;;;;5057598;28;20337;-51
2023/02/03 09:25:31;;;;;;;1.48;0.70;;;21.80;39.00;;;;;;5057696;28;20440;-51
2023/02/03 09:27:57;;;;;;;2.75;0.70;;;21.80;39.00;;;;;;5061010;28;20109;-51
2023/02/03 09:30:23;;;;;;;2.42;0.98;;;21.80;38.90;;;;;;5063992;28;20067;-51
2023/02/03 09:32:53;;;;;;;2.53;0.90;;;21.80;38.80;;;;;;5069433;28;20061;-50
2023/02/03 09:35:20;;;;;;;2.90;0.80;;;21.80;38.80;;;;;;5062387;28;20036;-51
2023/02/03 09:37:46;;;;;;;3.60;1.13;;;21.90;38.80;;;;;;5073585;28;20435;-51
2023/02/03 09:40:34;;;;;;;3.17;1.00;;;21.90;38.70;;;;;;5064511;28;20043;-52
2023/02/03 09:43:22;;;;;;;2.35;0.70;;;21.90;38.60;;;;;;5065285;28;20037;-50
2023/02/03 09:45:49;;;;;;;2.85;1.00;;;21.90;38.60;;;;;;5063720;28;20460;-50
2023/02/03 09:48:27;;;;;;;2.42;0.90;;;21.90;38.50;;;;;;5063624;28;20028;-51
2023/02/03 09:50:53;;;;;;;3.55;1.00;;;21.90;38.50;;;;;;5064543;28;20033;-50
2023/02/03 09:53:44;;;;;;;2.55;0.82;;;21.90;38.50;;;;;;5065395;28;20036;-51
2023/02/03 09:56:30;;;;;;;3.28;1.02;;;22.00;38.50;;;;;;5061997;28;20024;-47
2023/02/03 09:58:56;;;;;;;2.05;0.77;;;22.00;38.50;;;;;;5064912;28;20123;-49
2023/02/03 10:01:29;;;;;;;2.30;0.80;;;21.90;38.40;;;;;;5065571;28;20047;-50
2023/02/03 10:04:03;;;;;;;2.53;1.00;;;21.90;38.40;;;;;;5063062;28;20032;-50
2023/02/03 10:06:36;;;;;;;2.95;0.90;;;22.00;38.50;;;;;;5065296;28;20139;-52
2023/02/03 10:09:20;;;;;;;2.33;0.80;;;21.90;38.40;;;;;;5058151;28;20112;-48
2023/02/03 10:11:48;;;;;;;2.40;0.80;;;22.00;38.40;;;;;;5056815;28;20040;-50
2023/02/03 10:14:47;;;;;;;2.53;0.70;;;22.00;38.40;;;;;;5037293;28;20049;-52
2023/02/03 10:17:35;;;;;;;2.00;0.90;;;22.00;38.40;;;;;;5055816;28;20052;-52
2023/02/03 10:20:22;;;;;;;2.40;1.02;;;22.00;38.40;;;;;;5035945;28;20045;-50
2023/02/03 10:22:58;;;;;;;2.05;0.75;;;22.00;38.40;;;;;;5037111;28;20056;-50
2023/02/03 10:25:48;;;;;;;1.83;0.90;;;22.00;38.40;;;;;;5039658;28;20039;-51
2023/02/03 10:28:23;;;;;;;2.58;1.08;;;22.00;38.40;;;;;;5036947;28;20034;-52
2023/02/03 10:31:00;;;;;;;2.13;0.70;;;22.00;38.40;;;;;;5035672;28;20461;-50
2023/02/03 10:33:28;;;;;;;2.50;1.10;;;22.00;38.40;;;;;;5040709;28;20043;-51
2023/02/03 10:36:07;;;;;;;1.95;0.90;;;22.00;38.50;;;;;;5055496;28;20104;-50
2023/02/03 10:39:11;;;;;;;2.45;0.80;;;22.00;38.40;;;;;;5052743;28;20045;-52
2023/02/03 10:41:37;;;;;;;2.60;0.70;;;22.00;38.40;;;;;;5036957;28;20373;-51
2023/02/03 10:44:08;;;;;;;2.00;0.90;;;22.00;38.30;;;;;;5046118;28;20025;-50
2023/02/03 10:46:36;;;;;;;2.88;0.70;;;22.00;38.30;;;;;;5056443;28;20029;-50
2023/02/03 10:49:02;;;;;;;2.70;0.80;;;22.00;38.30;;;;;;5055124;28;20460;-46
2023/02/03 10:51:35;;;;;;;3.40;0.80;;;22.00;38.30;;;;;;5042184;28;20481;-50
2023/02/03 10:54:02;;;;;;;3.17;0.85;;;22.00;38.30;;;;;;5040709;28;20029;-50
2023/02/03 10:56:35;;;;;;;3.08;0.98;;;22.00;38.30;;;;;;5037858;28;20180;-51
2023/02/03 10:59:02;;;;;;;2.28;0.85;;;22.00;38.30;;;;;;5040773;28;20032;-50
2023/02/03 11:01:48;;;;;;;6.38;0.70;;;22.00;38.40;;;;;;5035764;28;20064;-47
2023/02/03 11:04:30;;;;;;;3.75;0.90;;;22.10;38.50;;;;;;5042843;28;20045;-52
2023/02/03 11:07:02;;;;;;;2.40;0.77;;;22.00;38.70;;;;;;5037877;28;20030;-53
2023/02/03 11:09:38;;;;;;;4.35;0.80;;;22.10;38.90;;;;;;5047157;28;20034;-48
2023/02/03 11:12:13;;;;;;;2.67;0.88;;;22.10;38.90;;;;;;5037204;28;20086;-52
2023/02/03 11:14:44;;;;;;;2.72;0.80;;;22.10;38.80;;;;;;5033905;28;20037;-50
2023/02/03 11:17:28;;;;;;;2.20;0.95;;;22.20;38.70;;;;;;5036063;28;20104;-50
2023/02/03 11:20:01;;;;;;;3.17;1.05;;;22.30;39.10;;;;;;5036146;28;20038;-47
2023/02/03 11:22:37;;;;;;;1.85;0.70;;;22.40;38.30;;;;;;5035975;28;20047;-47
2023/02/03 11:25:26;;;;;;;3.05;0.65;;;22.50;38.10;;;;;;5035749;28;20119;-49
2023/02/03 11:27:54;;;;;;;3.25;0.90;;;22.60;38.00;;;;;;5034814;28;20026;-46
2023/02/03 11:30:24;;;;;;;3.95;0.77;;;22.60;37.80;;;;;;5054181;28;20025;-50
2023/02/03 11:32:52;;;;;;;2.45;0.77;;;22.70;37.70;;;;;;5055460;28;20029;-50
2023/02/03 11:35:24;;;;;;;2.35;1.15;;;22.70;37.60;;;;;;5055500;28;20025;-49
2023/02/03 11:37:55;;;;;;;1.55;0.70;;;22.80;37.50;;;;;;5055502;28;20128;-46
2023/02/03 11:40:24;;;;;;;2.83;0.60;;;22.80;37.50;;;;;;5054909;28;20389;-49
2023/02/03 11:42:50;;;;;;;2.97;1.00;;;22.90;37.40;;;;;;5045186;28;20039;-51
2023/02/03 11:45:28;;;;;;;3.47;0.93;;;22.90;37.30;;;;;;5043739;28;20033;-50
2023/02/03 11:48:02;;;;;;;2.45;0.82;;;22.90;37.30;;;;;;5035714;28;20025;-48
2023/02/03 11:50:55;;;;;;;3.03;0.80;;;23.00;37.30;;;;;;5040430;28;20061;-49
2023/02/03 11:53:48;;;;;;;2.90;0.90;;;23.00;37.20;;;;;;5051404;28;20029;-49
2023/02/03 11:56:52;;;;;;;1.02;0.60;;;23.10;37.20;;;;;;5042074;28;20195;-46
2023/02/03 11:59:24;;;;;;;2.15;0.77;;;23.10;37.20;;;;;;5038182;28;20037;-46
2023/02/03 12:02:02;;;;;;;3.30;0.70;;;23.10;37.10;;;;;;5050343;28;20121;-46
2023/02/03 12:04:49;;;;;;;1.80;0.70;;;23.10;37.00;;;;;;5038441;28;20048;-46
2023/02/03 12:07:53;;;;;;;2.45;0.63;;;23.20;37.00;;;;;;5034313;28;20037;-46
2023/02/03 12:10:43;;;;;;;3.78;1.20;;;23.20;36.90;;;;;;5047061;28;20043;-47
2023/02/03 12:13:12;;;;;;;1.63;0.60;;;23.20;36.80;;;;;;5048261;28;20047;-53
2023/02/03 12:16:03;;;;;;;2.42;0.60;;;23.20;36.80;;;;;;5057134;28;20037;-45
2023/02/03 12:18:49;;;;;;;1.92;0.70;;;23.20;36.70;;;;;;5053690;28;20087;-49
2023/02/03 12:21:42;;;;;;;2.92;0.80;;;23.20;36.60;;;;;;5009468;28;20060;-47
2023/02/03 12:24:34;;;;;;;3.03;0.70;;;23.20;36.60;;;;;;5054070;28;20031;-45
2023/02/03 12:27:24;;;;;;;3.15;0.90;;;23.20;36.50;;;;;;5053546;28;20130;-48
2023/02/03 12:29:59;;;;;;;2.88;0.90;;;23.20;36.50;;;;;;5054032;28;20380;-52
2023/02/03 12:32:36;;;;;;;4.05;0.80;;;23.20;36.50;;;;;;5053948;28;20029;-47
2023/02/03 12:35:02;;;;;;;2.67;0.80;;;23.20;36.40;;;;;;5063082;28;20047;-46
2023/02/03 12:38:02;;;;;;;2.78;0.80;;;23.20;36.40;;;;;;5062477;28;20028;-45
2023/02/03 12:40:48;;;;;;;1.80;0.68;;;23.30;36.50;;;;;;5023760;28;20048;-51
2023/02/03 12:43:20;;;;;;;1.60;0.60;;;23.30;36.50;;;;;;5064800;28;20432;-48
2023/02/03 12:46:10;;;;;;;3.20;0.93;;;23.20;36.60;;;;;;5057400;28;20028;-57
2023/02/03 12:49:04;;;;;;;2.00;0.85;;;23.30;36.80;;;;;;5055181;28;20029;-51
2023/02/03 12:51:45;;;;;;;1.80;0.70;;;23.30;36.90;;;;;;5038287;28;20033;-52
2023/02/03 12:54:29;;;;;;;2.72;0.70;;;23.30;36.90;;;;;;5062914;28;20037;-53
2023/02/03 12:57:04;;;;;;;2.05;0.60;;;23.30;36.90;;;;;;5056517;28;20367;-50
2023/02/03 12:59:32;;;;;;;3.20;1.08;;;23.30;37.00;;;;;;5056901;28;20041;-54
2023/02/03 13:02:20;;;;;;;1.92;0.80;;;23.30;37.00;;;;;;5053593;28;20075;-55
2023/02/03 13:04:55;;;;;;;3.10;0.90;;;23.30;37.20;;;;;;5057423;28;20072;-54
2023/02/03 13:07:39;;;;;;;1.85;0.63;;;23.30;37.30;;;;;;5054505;28;20025;-51
2023/02/03 13:10:13;;;;;;;5.05;1.35;;;23.40;37.40;;;;;;5061911;28;20064;-54